York Springs, Pennsylvania
Current Conditions -  °F | °C
As of 8:53 AM on Monday 26 Jan 2015 (Local Time) from KTHV Reporting Station
Overcast Overcast  
Wind Chill: 16°   Ceiling: 1100
Heat Index: 26°   Visibility: 7mi
Dew Point: 23°   Wind: 10mph
Humidity: 88%   Direction: 80°E
Pressure: 29.84"   Gusts: NA
Location:  40.01°N, 77.12°W
Report Text: KTHV 261353Z AUTO 08009KT 7SM OVC011 M03/M05 A2984 RMK AO2 SLP113 T10331050
Loading
Personal Weather Stations






























Interactive Weather Map New forecast layout! Learn more

10-Day Weather Forecast

Advertisements
Track Severe Weather on mobile